createdAt,value
2019-01-02T00:00:41.618Z,4.60
2019-01-02T00:03:15.346Z,4.50
2019-01-02T00:05:48.993Z,4.40
2019-01-02T00:08:22.652Z,4.30
2019-01-02T00:10:56.231Z,4.30
2019-01-02T00:13:30.011Z,4.30
2019-01-02T00:16:03.796Z,4.30
2019-01-02T00:18:37.877Z,4.20
2019-01-02T00:21:11.428Z,4.20
2019-01-02T00:23:45.072Z,4.10
2019-01-02T00:26:18.824Z,4.00
2019-01-02T00:28:52.438Z,4.00
2019-01-02T00:31:26.143Z,4.10
2019-01-02T00:33:59.799Z,4.10
2019-01-02T00:36:33.358Z,4.20
2019-01-02T00:39:06.968Z,4.20
2019-01-02T00:41:40.602Z,4.20
2019-01-02T00:44:14.809Z,4.30
2019-01-02T00:46:47.993Z,4.30
2019-01-02T00:49:21.586Z,4.30
2019-01-02T00:51:55.185Z,4.30
2019-01-02T00:54:29.989Z,4.40
2019-01-02T00:57:03.525Z,4.30
2019-01-02T00:59:38.263Z,4.40
2019-01-02T01:02:12.579Z,4.50
2019-01-02T01:04:46.276Z,4.50
2019-01-02T01:07:20.107Z,4.60
2019-01-02T01:09:53.641Z,4.60
2019-01-02T01:12:27.323Z,4.60
2019-01-02T01:15:00.886Z,4.50
2019-01-02T01:17:35.498Z,4.50
2019-01-02T01:20:09.081Z,4.40
2019-01-02T01:22:43.392Z,4.40
2019-01-02T01:25:17.076Z,4.40
2019-01-02T01:27:50.603Z,4.30
2019-01-02T01:30:24.167Z,4.30
2019-01-02T01:32:57.887Z,4.30
2019-01-02T01:35:32.257Z,4.30
2019-01-02T01:38:06.064Z,4.30
2019-01-02T01:40:39.760Z,4.30
2019-01-02T01:43:13.533Z,4.30
2019-01-02T01:45:47.249Z,4.40
2019-01-02T01:48:20.843Z,4.40
2019-01-02T01:50:54.572Z,4.30
2019-01-02T01:53:28.147Z,4.20
2019-01-02T01:56:01.796Z,4.20
2019-01-02T01:58:35.354Z,4.10
2019-01-02T02:01:08.878Z,4.10
2019-01-02T02:03:42.409Z,4.10
2019-01-02T02:06:16.759Z,3.90
2019-01-02T02:08:50.506Z,3.90
2019-01-02T02:11:24.025Z,3.80
2019-01-02T02:13:57.600Z,3.70
2019-01-02T02:16:31.193Z,3.70
2019-01-02T02:19:05.853Z,3.70
2019-01-02T02:21:40.114Z,3.70
2019-01-02T02:24:13.758Z,3.70
2019-01-02T02:26:48.062Z,3.80
2019-01-02T02:29:22.467Z,3.80
2019-01-02T02:31:56.146Z,3.80
2019-01-02T02:34:29.852Z,3.90
2019-01-02T02:37:03.615Z,3.90
2019-01-02T02:39:38.030Z,3.90
2019-01-02T02:42:11.624Z,3.90
2019-01-02T02:44:45.135Z,3.90
2019-01-02T02:47:18.743Z,4.00
2019-01-02T02:49:52.285Z,4.10
2019-01-02T02:52:25.987Z,4.10
2019-01-02T02:54:59.638Z,4.10
2019-01-02T02:57:33.928Z,4.10
2019-01-02T03:00:08.417Z,4.10
2019-01-02T03:02:43.494Z,4.20
2019-01-02T03:05:17.156Z,4.20
2019-01-02T03:07:50.784Z,4.30
2019-01-02T03:10:24.445Z,4.30
2019-01-02T03:12:58.007Z,4.30
2019-01-02T03:15:31.574Z,4.40
2019-01-02T03:18:05.196Z,4.30
2019-01-02T03:20:38.903Z,4.30
2019-01-02T03:23:12.474Z,4.30
2019-01-02T03:25:46.223Z,4.20
2019-01-02T03:28:19.757Z,4.20
2019-01-02T03:30:54.220Z,4.20
2019-01-02T03:33:28.648Z,4.10
2019-01-02T03:36:02.413Z,4.10
2019-01-02T03:38:36.059Z,4.10
2019-01-02T03:41:10.483Z,4.00
2019-01-02T03:43:44.339Z,4.00
2019-01-02T03:46:17.987Z,4.00
2019-01-02T03:48:52.330Z,4.00
2019-01-02T03:51:26.093Z,3.90
2019-01-02T03:53:59.626Z,3.90
2019-01-02T03:56:33.186Z,3.90
2019-01-02T03:59:06.839Z,3.80
2019-01-02T04:01:41.332Z,3.70
2019-01-02T04:04:14.935Z,3.70
2019-01-02T04:06:48.546Z,3.70
2019-01-02T04:09:22.854Z,3.60
2019-01-02T04:11:56.471Z,3.60
2019-01-02T04:14:30.087Z,3.50
2019-01-02T04:17:03.668Z,3.50
2019-01-02T04:19:37.263Z,3.50
2019-01-02T04:22:10.769Z,3.40
2019-01-02T04:24:44.505Z,3.40
2019-01-02T04:27:18.085Z,3.40
2019-01-02T04:29:51.925Z,3.40
2019-01-02T04:32:25.628Z,3.40
2019-01-02T04:34:59.269Z,3.40
2019-01-02T04:37:33.664Z,3.40
2019-01-02T04:40:08.016Z,3.40
2019-01-02T04:42:41.602Z,3.50
2019-01-02T04:45:15.249Z,3.50
2019-01-02T04:47:48.907Z,3.60
2019-01-02T04:50:22.516Z,3.60
2019-01-02T04:52:56.107Z,3.60
2019-01-02T04:55:29.896Z,3.50
2019-01-02T04:58:03.617Z,3.50
2019-01-02T05:00:37.154Z,3.50
2019-01-02T05:03:11.537Z,3.60
2019-01-02T05:05:45.147Z,3.60
2019-01-02T05:08:18.669Z,3.60
2019-01-02T05:10:52.482Z,3.70
2019-01-02T05:13:26.969Z,3.70
2019-01-02T05:16:01.306Z,3.70
2019-01-02T05:18:35.020Z,3.70
2019-01-02T05:21:08.691Z,3.70
2019-01-02T05:23:42.348Z,3.60
2019-01-02T05:26:15.920Z,3.60
2019-01-02T05:28:49.759Z,3.70
2019-01-02T05:31:23.268Z,3.70
2019-01-02T05:33:56.834Z,3.70
2019-01-02T05:36:31.256Z,3.70
2019-01-02T05:39:04.854Z,3.70
2019-01-02T05:41:38.615Z,3.70
2019-01-02T05:44:12.194Z,3.70
2019-01-02T05:46:45.762Z,3.70
2019-01-02T05:49:20.068Z,3.60
2019-01-02T05:51:53.776Z,3.60
2019-01-02T05:54:27.411Z,3.60
2019-01-02T05:57:02.020Z,3.60
2019-01-02T05:59:36.623Z,3.60
2019-01-02T06:02:11.097Z,3.60
2019-01-02T06:04:45.629Z,3.60
2019-01-02T06:07:18.365Z,3.70
2019-01-02T06:09:52.053Z,3.70
2019-01-02T06:12:25.645Z,3.60
2019-01-02T06:14:59.441Z,3.70
2019-01-02T06:17:33.011Z,3.60
2019-01-02T06:20:08.132Z,3.70
2019-01-02T06:22:41.781Z,3.70
2019-01-02T06:25:15.378Z,3.70
2019-01-02T06:27:48.979Z,3.70
2019-01-02T06:30:22.872Z,3.70
2019-01-02T06:32:56.451Z,3.70
2019-01-02T06:35:31.727Z,3.70
2019-01-02T06:38:06.223Z,3.70
2019-01-02T06:40:39.854Z,3.70
2019-01-02T06:43:13.525Z,3.70
2019-01-02T06:45:47.201Z,3.70
2019-01-02T06:48:20.907Z,3.70
2019-01-02T06:50:54.505Z,3.70
2019-01-02T06:53:28.126Z,3.70
2019-01-02T06:56:02.626Z,3.70
2019-01-02T06:58:36.426Z,3.70
2019-01-02T07:01:09.988Z,3.70
2019-01-02T07:03:43.597Z,3.70
2019-01-02T07:06:18.117Z,3.70
2019-01-02T07:08:51.550Z,3.70
2019-01-02T07:11:25.148Z,3.70
2019-01-02T07:13:58.731Z,3.70
2019-01-02T07:16:32.405Z,3.70
2019-01-02T07:19:06.330Z,3.70
2019-01-02T07:21:39.950Z,3.80
2019-01-02T07:24:14.477Z,3.80
2019-01-02T07:26:48.324Z,3.70
2019-01-02T07:29:21.903Z,3.80
2019-01-02T07:31:55.503Z,3.70
2019-01-02T07:34:30.955Z,3.70
2019-01-02T07:40:16.985Z,3.80
2019-01-02T07:42:56.402Z,3.80
2019-01-02T07:45:57.340Z,3.90
2019-01-02T07:48:42.851Z,3.80
2019-01-02T07:51:30.572Z,3.90
2019-01-02T07:54:23.798Z,3.80
2019-01-02T07:57:03.037Z,3.80
2019-01-02T07:59:46.328Z,3.80
2019-01-02T08:02:36.730Z,3.80
2019-01-02T08:05:31.170Z,3.90
2019-01-02T08:08:11.451Z,3.90
2019-01-02T08:10:52.540Z,3.90
2019-01-02T08:13:32.910Z,3.90
2019-01-02T08:29:56.691Z,4.10
2019-01-02T08:32:46.098Z,4.10
2019-01-02T08:35:38.764Z,4.20
2019-01-02T08:38:24.239Z,4.20
2019-01-02T08:44:11.384Z,4.20
2019-01-02T08:46:53.824Z,4.10
2019-01-02T08:49:30.485Z,4.10
2019-01-02T08:52:16.067Z,4.20
2019-01-02T08:54:57.043Z,4.20
2019-01-02T09:00:42.954Z,4.30
2019-01-02T09:03:20.239Z,4.20
2019-01-02T09:05:54.810Z,4.30
2019-01-02T09:08:34.207Z,4.30
2019-01-02T09:11:32.718Z,4.40
2019-01-02T09:14:15.361Z,4.40
2019-01-02T09:17:10.728Z,4.60
2019-01-02T09:20:05.035Z,4.80
2019-01-02T09:22:46.004Z,4.70
2019-01-02T09:25:44.110Z,4.60
2019-01-02T09:28:28.266Z,4.50
2019-01-02T09:31:20.560Z,4.60
2019-01-02T09:34:00.663Z,4.60
2019-01-02T09:36:40.644Z,4.60
2019-01-02T09:39:30.600Z,4.50
2019-01-02T09:42:06.204Z,4.50
2019-01-02T09:44:43.333Z,4.50
2019-01-02T09:47:22.870Z,4.40
2019-01-02T09:49:57.365Z,4.50
2019-01-02T09:52:42.720Z,4.60
2019-01-02T09:55:31.879Z,4.60
2019-01-02T10:01:09.051Z,4.60
2019-01-02T10:03:53.222Z,4.60
2019-01-02T10:06:38.543Z,4.50
2019-01-02T10:09:23.586Z,4.30
2019-01-02T10:15:14.666Z,4.30
2019-01-02T10:17:50.149Z,4.40
2019-01-02T10:20:43.866Z,4.40
2019-01-02T10:23:20.151Z,4.50
2019-01-02T10:26:12.172Z,4.30
2019-01-02T10:28:49.410Z,4.30
2019-01-02T10:31:32.878Z,4.20
2019-01-02T10:37:08.415Z,4.10
2019-01-02T10:39:57.871Z,4.10
2019-01-02T10:45:31.157Z,4.80
2019-01-02T10:48:07.913Z,5.10
2019-01-02T10:50:49.292Z,5.00
2019-01-02T10:56:26.009Z,4.70
2019-01-02T10:59:01.416Z,4.70
2019-01-02T11:01:59.916Z,4.70
2019-01-02T11:04:53.336Z,4.60
2019-01-02T11:07:27.891Z,4.60
2019-01-02T11:13:20.315Z,4.60
2019-01-02T11:16:00.744Z,4.60
2019-01-02T11:21:46.833Z,4.60
2019-01-02T11:24:32.406Z,4.60
2019-01-02T11:27:13.766Z,4.60
2019-01-02T11:29:53.770Z,4.70
2019-01-02T11:32:49.051Z,4.80
2019-01-02T11:35:29.915Z,7.40
2019-01-02T11:38:08.560Z,7.40
2019-01-02T11:40:43.785Z,9.10
2019-01-02T11:43:18.248Z,8.20
2019-01-02T11:45:51.957Z,7.30
2019-01-02T11:48:25.703Z,6.50
2019-01-02T11:50:59.255Z,6.10
2019-01-02T11:53:32.758Z,5.70
2019-01-02T11:56:07.735Z,5.40
2019-01-02T11:58:40.797Z,5.40
2019-01-02T12:01:15.304Z,7.50
2019-01-02T12:03:49.035Z,7.50
2019-01-02T12:06:23.558Z,6.60
2019-01-02T12:08:57.903Z,6.20
2019-01-02T12:11:31.640Z,6.20
2019-01-02T12:14:05.213Z,6.10
2019-01-02T12:16:39.014Z,6.10
2019-01-02T12:19:12.569Z,6.30
2019-01-02T12:21:46.270Z,6.00
2019-01-02T12:24:20.017Z,5.90
2019-01-02T12:26:53.631Z,5.80
2019-01-02T12:29:28.130Z,5.90
2019-01-02T12:32:02.044Z,5.90
2019-01-02T12:34:35.767Z,5.80
2019-01-02T12:37:09.527Z,5.60
2019-01-02T12:39:43.308Z,5.50
2019-01-02T12:42:16.904Z,5.70
2019-01-02T12:44:50.793Z,5.80
2019-01-02T12:47:24.416Z,6.00
2019-01-02T12:49:58.198Z,5.90
2019-01-02T12:52:31.928Z,6.10
2019-01-02T12:55:05.474Z,6.30
2019-01-02T12:57:39.904Z,6.30
2019-01-02T13:00:13.630Z,6.30
2019-01-02T13:05:46.385Z,5.70
2019-01-02T13:11:29.501Z,5.30
2019-01-02T13:14:21.956Z,5.10
2019-01-02T13:17:07.376Z,5.00
2019-01-02T13:19:49.802Z,4.50
2019-01-02T13:22:24.453Z,4.50
2019-01-02T13:24:58.847Z,4.20
2019-01-02T13:27:34.756Z,4.10
2019-01-02T13:30:18.198Z,4.10
2019-01-02T13:33:10.611Z,4.10
2019-01-02T13:35:49.576Z,4.30
2019-01-02T13:38:39.893Z,4.30
2019-01-02T13:41:21.405Z,4.30
2019-01-02T13:43:58.955Z,4.40
2019-01-02T13:49:40.826Z,4.60
2019-01-02T13:52:14.419Z,4.60
2019-01-02T13:54:47.960Z,4.50
2019-01-02T13:57:21.567Z,4.60
2019-01-02T13:59:56.036Z,4.70
2019-01-02T14:02:29.775Z,4.70
2019-01-02T14:05:03.363Z,4.60
2019-01-02T14:07:37.138Z,4.60
2019-01-02T14:10:10.842Z,4.60
2019-01-02T14:12:44.580Z,4.70
2019-01-02T14:15:18.198Z,4.70
2019-01-02T14:17:52.511Z,4.80
2019-01-02T14:20:26.198Z,4.70
2019-01-02T14:22:59.915Z,4.80
2019-01-02T14:25:33.540Z,4.90
2019-01-02T14:28:07.171Z,4.90
2019-01-02T14:30:40.802Z,4.90
2019-01-02T14:33:14.344Z,5.00
2019-01-02T14:35:47.883Z,5.00
2019-01-02T14:38:21.599Z,5.00
2019-01-02T14:40:55.395Z,4.90
2019-01-02T14:43:29.076Z,4.90
2019-01-02T14:46:02.895Z,4.90
2019-01-02T14:48:36.597Z,4.80
2019-01-02T14:51:10.292Z,4.80
2019-01-02T14:53:43.911Z,4.70
2019-01-02T14:56:17.653Z,4.70
2019-01-02T14:58:51.347Z,4.60
2019-01-02T15:01:24.913Z,4.60
2019-01-02T15:03:59.543Z,4.50
2019-01-02T15:06:33.143Z,4.40
2019-01-02T15:09:06.724Z,4.40
2019-01-02T15:11:40.295Z,4.30
2019-01-02T15:14:13.946Z,4.30
2019-01-02T15:16:47.669Z,4.30
2019-01-02T15:19:21.386Z,4.30
2019-01-02T15:21:55.159Z,4.40
2019-01-02T15:24:30.426Z,4.50
2019-01-02T15:27:04.022Z,4.50
2019-01-02T15:29:38.636Z,4.40
2019-01-02T15:32:12.232Z,4.40
2019-01-02T15:34:46.083Z,4.30
2019-01-02T15:37:19.655Z,4.30
2019-01-02T15:39:53.259Z,4.20
2019-01-02T15:42:26.987Z,4.20
2019-01-02T15:45:00.567Z,4.20
2019-01-02T15:47:34.270Z,4.10
2019-01-02T15:50:07.866Z,4.10
2019-01-02T15:52:41.581Z,4.00
2019-01-02T15:55:15.156Z,4.00
2019-01-02T15:57:48.838Z,4.00
2019-01-02T16:00:22.684Z,4.00
2019-01-02T16:02:56.227Z,4.00
2019-01-02T16:05:30.130Z,4.00
2019-01-02T16:08:03.843Z,4.00
2019-01-02T16:10:37.562Z,4.00
2019-01-02T16:13:11.204Z,4.00
2019-01-02T16:15:44.958Z,4.00
2019-01-02T16:18:18.567Z,3.90
2019-01-02T16:20:52.195Z,3.80
2019-01-02T16:23:25.874Z,3.80
2019-01-02T16:25:59.458Z,3.70
2019-01-02T16:28:33.083Z,3.60
2019-01-02T16:31:06.795Z,3.60
2019-01-02T16:33:41.060Z,3.50
2019-01-02T16:36:14.735Z,3.50
2019-01-02T16:38:49.233Z,3.50
2019-01-02T16:41:22.935Z,3.50
2019-01-02T16:43:56.618Z,3.50
2019-01-02T16:46:30.348Z,3.50
2019-01-02T16:49:03.921Z,3.50
2019-01-02T16:51:38.417Z,3.50
2019-01-02T16:54:12.157Z,3.60
2019-01-02T16:56:45.736Z,3.60
2019-01-02T16:59:19.336Z,3.60
2019-01-02T17:01:52.948Z,3.50
2019-01-02T17:04:26.952Z,3.40
2019-01-02T17:07:00.696Z,3.40
2019-01-02T17:09:34.452Z,3.40
2019-01-02T17:12:08.138Z,3.40
2019-01-02T17:14:42.589Z,3.30
2019-01-02T17:17:16.309Z,3.30
2019-01-02T17:19:50.413Z,3.30
2019-01-02T17:22:24.768Z,3.30
2019-01-02T17:24:58.431Z,3.20
2019-01-02T17:27:32.058Z,3.30
2019-01-02T17:30:05.767Z,3.30
2019-01-02T17:32:39.547Z,3.20
2019-01-02T17:35:13.167Z,3.10
2019-01-02T17:37:47.691Z,3.10
2019-01-02T17:40:21.280Z,3.10
2019-01-02T17:42:55.064Z,3.10
2019-01-02T17:45:28.649Z,3.10
2019-01-02T17:48:02.345Z,3.10
2019-01-02T17:50:35.899Z,3.00
2019-01-02T17:53:09.719Z,3.00
2019-01-02T17:55:43.952Z,3.00
2019-01-02T17:58:17.734Z,3.00
2019-01-02T18:00:51.452Z,3.00
2019-01-02T18:03:25.144Z,3.00
2019-01-02T18:05:58.703Z,3.00
2019-01-02T18:08:32.287Z,3.00
2019-01-02T18:11:06.807Z,2.90
2019-01-02T18:13:39.423Z,3.00
2019-01-02T18:16:13.184Z,3.00
2019-01-02T18:18:46.778Z,3.00
2019-01-02T18:21:20.556Z,3.00
2019-01-02T18:23:54.322Z,3.00
2019-01-02T18:26:27.841Z,2.90
2019-01-02T18:29:01.450Z,2.90
2019-01-02T18:31:35.020Z,2.80
2019-01-02T18:34:08.607Z,2.80
2019-01-02T18:36:42.377Z,2.80
2019-01-02T18:39:16.709Z,2.90
2019-01-02T18:41:50.260Z,2.90
2019-01-02T18:44:23.864Z,3.00
2019-01-02T18:46:57.616Z,3.00
2019-01-02T18:49:31.198Z,3.00
2019-01-02T18:52:04.850Z,3.00
2019-01-02T18:54:38.603Z,3.00
2019-01-02T18:57:12.319Z,3.00
2019-01-02T18:59:45.930Z,3.00
2019-01-02T19:02:20.391Z,3.00
2019-01-02T19:04:53.975Z,2.90
2019-01-02T19:07:27.693Z,2.90
2019-01-02T19:10:02.157Z,2.80
2019-01-02T19:12:36.654Z,2.80
2019-01-02T19:15:11.184Z,2.70
2019-01-02T19:17:44.900Z,2.70
2019-01-02T19:20:19.424Z,2.70
2019-01-02T19:22:52.986Z,2.70
2019-01-02T19:25:26.728Z,2.70
2019-01-02T19:28:00.467Z,2.60
2019-01-02T19:30:35.213Z,2.60
2019-01-02T19:33:08.752Z,2.50
2019-01-02T19:35:42.361Z,2.40
2019-01-02T19:38:16.248Z,2.40
2019-01-02T19:40:50.032Z,2.40
2019-01-02T19:43:23.795Z,2.30
2019-01-02T19:45:57.505Z,2.30
2019-01-02T19:48:31.242Z,2.20
2019-01-02T19:51:04.905Z,2.20
2019-01-02T19:53:39.583Z,2.10
2019-01-02T19:56:13.321Z,2.10
2019-01-02T19:58:46.920Z,2.20
2019-01-02T20:01:20.647Z,2.20
2019-01-02T20:03:54.238Z,2.10
2019-01-02T20:06:27.985Z,2.10
2019-01-02T20:09:01.583Z,2.10
2019-01-02T20:11:35.443Z,2.10
2019-01-02T20:14:09.132Z,2.10
2019-01-02T20:16:42.918Z,2.10
2019-01-02T20:19:16.431Z,2.10
2019-01-02T20:21:50.018Z,2.10
2019-01-02T20:24:23.741Z,2.10
2019-01-02T20:26:57.508Z,2.10
2019-01-02T20:29:31.233Z,2.10
2019-01-02T20:32:04.830Z,2.00
2019-01-02T20:34:38.412Z,2.00
2019-01-02T20:37:12.140Z,1.90
2019-01-02T20:39:45.730Z,1.90
2019-01-02T20:42:19.355Z,1.90
2019-01-02T20:44:53.564Z,1.80
2019-01-02T20:47:27.356Z,1.80
2019-01-02T20:50:01.030Z,1.80
2019-01-02T20:52:34.592Z,1.80
2019-01-02T20:55:08.247Z,1.70
2019-01-02T20:57:41.843Z,1.70
2019-01-02T21:00:15.637Z,1.70
2019-01-02T21:02:49.297Z,1.70
2019-01-02T21:05:22.830Z,1.70
2019-01-02T21:07:56.694Z,1.70
2019-01-02T21:10:31.223Z,1.80
2019-01-02T21:13:05.648Z,1.80
2019-01-02T21:15:39.333Z,1.80
2019-01-02T21:18:12.932Z,1.70
2019-01-02T21:20:46.627Z,1.80
2019-01-02T21:23:20.227Z,1.80
2019-01-02T21:25:53.845Z,1.80
2019-01-02T21:28:27.552Z,1.80
2019-01-02T21:31:01.228Z,1.80
2019-01-02T21:33:34.751Z,1.70
2019-01-02T21:36:08.361Z,1.80
2019-01-02T21:38:41.958Z,1.70
2019-01-02T21:41:15.561Z,1.70
2019-01-02T21:43:49.067Z,1.70
2019-01-02T21:46:22.802Z,1.70
2019-01-02T21:48:56.543Z,1.70
2019-01-02T21:51:30.192Z,1.60
2019-01-02T21:54:03.764Z,1.60
2019-01-02T21:56:37.510Z,1.50
2019-01-02T21:59:11.073Z,1.50
2019-01-02T22:01:44.695Z,1.50
2019-01-02T22:04:18.356Z,1.50
2019-01-02T22:06:53.003Z,1.50
2019-01-02T22:09:26.746Z,1.50
2019-01-02T22:12:00.919Z,1.50
2019-01-02T22:14:34.496Z,1.60
2019-01-02T22:17:08.128Z,1.50
2019-01-02T22:19:42.641Z,1.60
2019-01-02T22:22:16.378Z,1.50
2019-01-02T22:24:50.111Z,1.50
2019-01-02T22:27:23.942Z,1.50
2019-01-02T22:29:57.511Z,1.60
2019-01-02T22:32:31.158Z,1.60
2019-01-02T22:35:04.882Z,1.60
2019-01-02T22:37:39.508Z,1.60
2019-01-02T22:40:13.876Z,1.50
2019-01-02T22:42:47.554Z,1.50
2019-01-02T22:45:22.155Z,1.40
2019-01-02T22:47:55.752Z,1.40
2019-01-02T22:50:29.337Z,1.40
2019-01-02T22:53:04.177Z,1.20
2019-01-02T22:55:37.777Z,1.20
2019-01-02T22:58:12.302Z,1.20
2019-01-02T23:00:51.835Z,1.20
2019-01-02T23:03:31.672Z,1.20
2019-01-02T23:06:20.232Z,1.20
2019-01-02T23:09:09.635Z,1.20
2019-01-02T23:11:58.298Z,1.20
2019-01-02T23:14:34.675Z,1.20
2019-01-02T23:17:14.907Z,1.20
2019-01-02T23:19:54.137Z,1.30
2019-01-02T23:22:44.526Z,1.30
2019-01-02T23:25:35.931Z,1.30
2019-01-02T23:28:12.921Z,1.40
2019-01-02T23:30:49.958Z,1.40
2019-01-02T23:33:42.587Z,1.40
2019-01-02T23:36:32.952Z,1.40
2019-01-02T23:39:07.284Z,1.40
2019-01-02T23:42:00.615Z,1.50
2019-01-02T23:44:37.256Z,1.40
2019-01-02T23:47:26.509Z,1.50
2019-01-02T23:50:15.902Z,1.50
2019-01-02T23:52:50.014Z,1.60
2019-01-02T23:55:43.303Z,1.50
2019-01-02T23:58:22.776Z,1.50
